createdAt,value
2022-12-11T00:00:10.085Z,-1.9
2022-12-11T00:05:10.315Z,-1.8
2022-12-11T00:10:10.083Z,-1.8
2022-12-11T00:15:10.457Z,-1.8
2022-12-11T00:20:10.083Z,-1.7
2022-12-11T00:25:10.300Z,-1.8
2022-12-11T00:30:10.086Z,-2
2022-12-11T00:35:10.417Z,-2.1
2022-12-11T00:40:10.096Z,-2.1
2022-12-11T00:45:10.437Z,-2.1
2022-12-11T00:50:10.109Z,-2.1
2022-12-11T00:55:10.377Z,-2.1
2022-12-11T01:00:10.117Z,-2.1
2022-12-11T01:05:10.345Z,-2.1
2022-12-11T01:10:10.155Z,-2.1
2022-12-11T01:15:10.334Z,-2.1
2022-12-11T01:20:10.091Z,-2.2
2022-12-11T01:25:10.450Z,-2.2
2022-12-11T01:30:10.102Z,-2.2
2022-12-11T01:35:10.372Z,-2.2
2022-12-11T01:40:10.301Z,-2.2
2022-12-11T01:45:10.377Z,-2.2
2022-12-11T01:50:10.082Z,-2.2
2022-12-11T01:55:10.429Z,-2.2
2022-12-11T02:00:10.085Z,-2.2
2022-12-11T02:05:10.376Z,-2.2
2022-12-11T02:10:10.085Z,-2.2
2022-12-11T02:15:10.339Z,-2.2
2022-12-11T02:20:10.089Z,-2.3
2022-12-11T02:25:10.416Z,-2.3
2022-12-11T02:30:10.088Z,-2.3
2022-12-11T02:35:10.368Z,-2.4
2022-12-11T02:40:10.082Z,-2.5
2022-12-11T02:45:10.353Z,-2.6
2022-12-11T02:50:10.087Z,-2.7
2022-12-11T02:55:10.450Z,-2.8
2022-12-11T03:00:10.089Z,-2.8
2022-12-11T03:05:10.438Z,-2.8
2022-12-11T03:10:10.103Z,-2.8
2022-12-11T03:15:10.416Z,-2.8
2022-12-11T03:20:10.090Z,-2.9
2022-12-11T03:25:10.396Z,-2.9
2022-12-11T03:30:10.082Z,-2.9
2022-12-11T03:35:10.082Z,-2.9
2022-12-11T03:40:10.083Z,-3
2022-12-11T03:45:10.324Z,-2.9
2022-12-11T03:50:10.086Z,-2.9
2022-12-11T03:55:10.357Z,-3
2022-12-11T04:00:10.085Z,-3
2022-12-11T04:05:10.338Z,-3
2022-12-11T04:10:10.086Z,-3.1
2022-12-11T04:15:10.417Z,-3.1
2022-12-11T04:20:10.084Z,-3.2
2022-12-11T04:25:10.379Z,-3.3
2022-12-11T04:30:10.086Z,-3.3
2022-12-11T04:35:10.372Z,-3.3
2022-12-11T04:40:10.097Z,-3.3
2022-12-11T04:45:10.273Z,-3.3
2022-12-11T04:50:10.099Z,-3.4
2022-12-11T04:55:10.389Z,-3.5
2022-12-11T05:00:10.080Z,-3.7
2022-12-11T05:05:10.464Z,-3.7
2022-12-11T05:10:10.081Z,-3.8
2022-12-11T05:15:10.353Z,-3.8
2022-12-11T05:20:10.088Z,-3.8
2022-12-11T05:25:10.297Z,-3.8
2022-12-11T05:30:10.090Z,-3.8
2022-12-11T05:35:10.352Z,-3.7
2022-12-11T05:40:10.082Z,-3.6
2022-12-11T05:45:10.459Z,-3.7
2022-12-11T05:50:10.083Z,-3.8
2022-12-11T05:55:10.300Z,-3.8
2022-12-11T06:00:10.087Z,-3.9
2022-12-11T06:05:10.452Z,-4
2022-12-11T06:10:10.085Z,-3.9
2022-12-11T06:15:10.401Z,-3.8
2022-12-11T06:20:10.084Z,-3.9
2022-12-11T06:25:10.351Z,-4
2022-12-11T06:30:10.094Z,-4.1
2022-12-11T06:35:10.376Z,-4.3
2022-12-11T06:40:10.084Z,-4.3
2022-12-11T06:45:10.478Z,-4.3
2022-12-11T06:50:10.087Z,-4.2
2022-12-11T06:55:10.524Z,-4
2022-12-11T07:00:10.084Z,-3.8
2022-12-11T07:05:10.355Z,-3.8
2022-12-11T07:10:10.083Z,-3.8
2022-12-11T07:15:10.400Z,-3.6
2022-12-11T07:20:10.081Z,-3.4
2022-12-11T07:25:10.398Z,-3.2
2022-12-11T07:30:10.085Z,-3.1
2022-12-11T07:35:10.455Z,-3
2022-12-11T07:40:10.092Z,-3
2022-12-11T07:45:10.531Z,-2.9
2022-12-11T07:50:10.084Z,-2.9
2022-12-11T07:55:10.321Z,-2.9
2022-12-11T08:00:10.084Z,-2.9
2022-12-11T08:05:10.491Z,-2.9
2022-12-11T08:10:10.081Z,-2.9
2022-12-11T08:15:10.404Z,-2.8
2022-12-11T08:20:10.094Z,-2.8
2022-12-11T08:25:10.300Z,-2.8
2022-12-11T08:30:10.091Z,-2.8
2022-12-11T08:35:10.387Z,-2.7
2022-12-11T08:40:10.098Z,-2.8
2022-12-11T08:45:10.323Z,-2.7
2022-12-11T08:50:10.090Z,-2.7
2022-12-11T08:55:10.421Z,-2.7
2022-12-11T09:00:10.085Z,-2.6
2022-12-11T09:05:10.437Z,-2.6
2022-12-11T09:10:10.082Z,-2.6
2022-12-11T09:15:10.528Z,-2.7
2022-12-11T09:20:10.084Z,-2.6
2022-12-11T09:25:10.369Z,-2.6
2022-12-11T09:30:10.096Z,-2.5
2022-12-11T09:35:10.507Z,-2.5
2022-12-11T09:40:10.086Z,-2.5
2022-12-11T09:45:10.414Z,-2.5
2022-12-11T09:50:10.088Z,-2.4
2022-12-11T09:55:10.344Z,-2.4
2022-12-11T10:00:10.085Z,-2.3
2022-12-11T10:05:10.353Z,-2.3
2022-12-11T10:10:10.089Z,-2.2
2022-12-11T10:15:10.502Z,-2.2
2022-12-11T10:20:10.096Z,-2.2
2022-12-11T10:25:11.746Z,-2
2022-12-11T10:30:10.083Z,-2
2022-12-11T10:35:10.374Z,-1.9
2022-12-11T10:40:10.089Z,-1.9
2022-12-11T10:45:10.464Z,-1.9
2022-12-11T10:50:10.080Z,-1.8
2022-12-11T10:55:10.334Z,-1.8
2022-12-11T11:00:10.081Z,-1.7
2022-12-11T11:05:10.307Z,-1.7
2022-12-11T11:10:10.081Z,-1.6
2022-12-11T11:15:10.391Z,-1.5
2022-12-11T11:20:10.094Z,-1.4
2022-12-11T11:25:10.341Z,-1.4
2022-12-11T11:30:10.088Z,-1.2
2022-12-11T11:35:10.298Z,-1.4
2022-12-11T11:40:10.088Z,-1.5
2022-12-11T11:45:10.324Z,-1.5
2022-12-11T11:50:10.083Z,-1.4
2022-12-11T11:55:10.640Z,-1.4
2022-12-11T12:00:10.085Z,-1.3
2022-12-11T12:05:10.354Z,-1.2
2022-12-11T12:10:10.178Z,-1.2
2022-12-11T12:15:10.411Z,-1.1
2022-12-11T12:20:10.095Z,-1.3
2022-12-11T12:25:10.416Z,-1.2
2022-12-11T12:30:10.093Z,-1.2
2022-12-11T12:35:10.341Z,-1.3
2022-12-11T12:40:10.185Z,-1.3
2022-12-11T12:45:10.375Z,-1.2
2022-12-11T12:50:10.093Z,-1.2
2022-12-11T12:55:10.411Z,-1.3
2022-12-11T13:00:12.993Z,-1.2
2022-12-11T13:05:10.385Z,-1.3
2022-12-11T13:10:10.084Z,-1.5
2022-12-11T13:15:10.331Z,-1.6
2022-12-11T13:20:10.097Z,-1.5
2022-12-11T13:25:10.308Z,-1.5
2022-12-11T13:30:10.097Z,-1.4
2022-12-11T13:35:10.485Z,-1.3
2022-12-11T13:40:10.097Z,-1.4
2022-12-11T13:45:10.292Z,-1.4
2022-12-11T13:50:10.084Z,-1.4
2022-12-11T13:55:10.353Z,-1.4
2022-12-11T14:00:14.364Z,-1.3
2022-12-11T14:05:10.653Z,-1.4
2022-12-11T14:10:10.481Z,-1.4
2022-12-11T14:15:10.428Z,-1.5
2022-12-11T14:20:10.641Z,-1.5
2022-12-11T14:25:14.553Z,-1.5
2022-12-11T14:30:10.351Z,-1.5
2022-12-11T14:35:10.095Z,-1.5
2022-12-11T14:40:10.483Z,-1.5
2022-12-11T14:45:10.091Z,-1.6
2022-12-11T14:50:10.424Z,-1.6
2022-12-11T14:55:10.097Z,-1.6
2022-12-11T15:00:10.543Z,-1.6
2022-12-11T15:05:10.088Z,-1.7
2022-12-11T15:10:10.446Z,-1.7
2022-12-11T15:15:10.091Z,-1.7
2022-12-11T15:20:10.379Z,-1.7
2022-12-11T15:25:10.091Z,-1.7
2022-12-11T15:30:10.417Z,-1.8
2022-12-11T15:35:10.098Z,-1.8
2022-12-11T15:40:10.379Z,-1.9
2022-12-11T15:45:10.344Z,-1.9
2022-12-11T15:50:10.331Z,-2
2022-12-11T15:55:10.490Z,-2
2022-12-11T16:00:10.081Z,-2.1
2022-12-11T16:05:10.382Z,-2.2
2022-12-11T16:10:10.083Z,-2.2
2022-12-11T16:15:10.343Z,-2.2
2022-12-11T16:20:10.085Z,-2.2
2022-12-11T16:25:10.503Z,-2.3
2022-12-11T16:30:10.085Z,-2.2
2022-12-11T16:35:10.384Z,-2.3
2022-12-11T16:40:10.083Z,-2.3
2022-12-11T16:45:10.469Z,-2.3
2022-12-11T16:50:10.078Z,-2.3
2022-12-11T16:55:10.624Z,-2.3
2022-12-11T17:00:10.086Z,-2.3
2022-12-11T17:05:10.431Z,-2.3
2022-12-11T17:10:10.081Z,-2.4
2022-12-11T17:15:10.471Z,-2.3
2022-12-11T17:20:10.089Z,-2.4
2022-12-11T17:25:10.423Z,-2.4
2022-12-11T17:30:10.091Z,-2.3
2022-12-11T17:35:10.429Z,-2.3
2022-12-11T17:40:10.096Z,-2.3
2022-12-11T17:45:10.452Z,-2.3
2022-12-11T17:50:10.083Z,-2.3
2022-12-11T17:55:10.478Z,-2.3
2022-12-11T18:00:10.080Z,-2.3
2022-12-11T18:05:10.368Z,-2.3
2022-12-11T18:10:10.086Z,-2.3
2022-12-11T18:15:10.529Z,-2.2
2022-12-11T18:20:10.082Z,-2.2
2022-12-11T18:25:10.497Z,-2.2
2022-12-11T18:30:10.094Z,-2.2
2022-12-11T18:35:10.428Z,-2.2
2022-12-11T18:40:10.084Z,-2.2
2022-12-11T18:45:10.308Z,-2.2
2022-12-11T18:50:10.080Z,-2.2
2022-12-11T18:55:10.285Z,-2.2
2022-12-11T19:00:10.095Z,-2.2
2022-12-11T19:05:10.441Z,-2.2
2022-12-11T19:10:10.090Z,-2.2
2022-12-11T19:15:10.516Z,-2.2
2022-12-11T19:20:40.140Z,-2.2
2022-12-11T19:25:10.479Z,-2.2
2022-12-11T19:30:10.086Z,-2.2
2022-12-11T19:35:10.346Z,-2.2
2022-12-11T19:40:10.084Z,-2.2
2022-12-11T19:45:10.520Z,-2.2
2022-12-11T19:50:10.175Z,-2.2
2022-12-11T19:55:10.479Z,-2.2
2022-12-11T20:00:10.091Z,-2.3
2022-12-11T20:05:10.432Z,-2.3
2022-12-11T20:10:10.096Z,-2.3
2022-12-11T20:15:10.433Z,-2.3
2022-12-11T20:20:10.094Z,-2.2
2022-12-11T20:25:10.410Z,-2.2
2022-12-11T20:30:10.089Z,-2.2
2022-12-11T20:35:10.374Z,-2.2
2022-12-11T20:40:10.088Z,-2.2
2022-12-11T20:45:10.393Z,-2.1
2022-12-11T20:50:10.087Z,-2.1
2022-12-11T20:55:10.454Z,-2.1
2022-12-11T21:00:10.086Z,-2.1
2022-12-11T21:05:10.280Z,-2.2
2022-12-11T21:10:10.092Z,-2.2
2022-12-11T21:15:10.318Z,-2.2
2022-12-11T21:20:10.087Z,-2.2
2022-12-11T21:25:10.313Z,-2.2
2022-12-11T21:30:10.091Z,-2.2
2022-12-11T21:35:10.329Z,-2.2
2022-12-11T21:40:10.084Z,-2.1
2022-12-11T21:50:10.085Z,-2
2022-12-11T21:55:10.190Z,-2
2022-12-11T22:00:10.087Z,-2
2022-12-11T22:05:10.480Z,-2
2022-12-11T22:10:10.079Z,-2.1
2022-12-11T22:15:10.365Z,-2
2022-12-11T22:20:10.095Z,-2.1
2022-12-11T22:25:10.405Z,-2.1
2022-12-11T22:30:10.086Z,-2.1
2022-12-11T22:35:10.467Z,-2.2
2022-12-11T22:40:10.081Z,-2.2
2022-12-11T22:45:10.375Z,-2.3
2022-12-11T22:50:10.080Z,-2.3
2022-12-11T22:55:10.427Z,-2.3
2022-12-11T23:00:10.085Z,-2.3
2022-12-11T23:05:10.274Z,-2.3
2022-12-11T23:10:10.083Z,-2.3
2022-12-11T23:15:10.306Z,-2.3
2022-12-11T23:20:10.081Z,-2.4
2022-12-11T23:25:10.211Z,-2.3
2022-12-11T23:30:10.087Z,-2.4
2022-12-11T23:35:10.475Z,-2.4
2022-12-11T23:40:10.083Z,-2.3
2022-12-11T23:45:10.414Z,-2.4
2022-12-11T23:50:10.086Z,-2.4
2022-12-11T23:55:10.466Z,-2.4
